ThailandFixed distance
Chiangmai Thailand by UTMB - HMONG 50-DAY
6 Dec2025
Distance
48km
Finishers
2,0721,434 men638 women
Winning time
4:31:58h
Median pace
4.52km/h
Pace distribution
2,072 finishers · 2.43–10.59 km/h · mean 4.75
Every finisher ran the same 48 km course, so these paces are directly comparable.
Histogram of finisher pace. 2,072 finishers ranged from 2.43 to 10.59 kilometres per hour, with a mean of 4.75 and a median of 4.52. The busiest band is 4.0 to 4.5 kilometres per hour, with 394 finishers.
Results
Ranks 1,951–2,000 of 2,072
| Rank | Runner | Time | Pace | Cat. | Placing |
|---|---|---|---|---|---|
| 1984 | Tsinghua Light Team | 14:30:50h | 3.31 | M50 | 1355th M · 144th M50 |
| 1985 | Team Independent | 14:32:37h | 3.30 | M40 | 1356th M · 250th M40 |
| 1986 | 14:32:38h | 3.30 | M35 | 1357th M · 273rd M35 | |
| 1987 | 14:32:44h | 3.30 | M23 | 1358th M · 370th M23 | |
| 1988 | 14:33:28h | 3.30 | M45 | 1359th M · 189th M45 | |
| 1989 | 14:33:33h | 3.30 | M45 | 1360th M · 190th M45 | |
| 1990 | 14:33:55h | 3.30 | M40 | 1361st M · 251st M40 | |
| 1991 | 14:33:59h | 3.29 | M45 | 1362nd M · 191st M45 | |
| 1992 | Wrwy | 14:34:18h | 3.29 | M35 | 1363rd M · 274th M35 |
| 1993 | 14:34:42h | 3.29 | M23 | 1364th M · 371st M23 | |
| 1994 | UTM-Leave Me-B | 14:34:44h | 3.29 | W23 | 597th F · 212th W23 |
| 1995 | Stella | 14:34:58h | 3.29 | W45 | 598th F · 87th W45 |
| 1996 | 14:35:05h | 3.29 | W40 | 599th F · 97th W40 | |
| 1997 | Because I Said I Would | 14:35:56h | 3.29 | M35 | 1365th M · 275th M35 |
| 1998 | 14:37:32h | 3.28 | W50 | 600th F · 61st W50 | |
| 1999 | 14:37:43h | 3.28 | M50 | 1366th M · 145th M50 | |
| 2000 | 14:38:23h | 3.28 | M45 | 1367th M · 192nd M45 | |
| 2001 | 14:38:32h | 3.28 | W40 | 601st F · 98th W40 | |
| 2002 | Monkey Crew | 14:39:27h | 3.27 | M55 | 1368th M · 79th M55 |
| 2003 | 14:39:28h | 3.27 | M45 | 1369th M · 193rd M45 | |
| 2004 | Zk331 | 14:39:38h | 3.27 | M35 | 1370th M · 276th M35 |
| 2005 | Zk331 | 14:39:39h | 3.27 | W23 | 602nd F · 213th W23 |
| 2006 | Swrc | 14:39:56h | 3.27 | M40 | 1371st M · 252nd M40 |
| 2007 | Swrc Korea | 14:39:59h | 3.27 | M40 | 1372nd M · 253rd M40 |
| 2008 | 14:40:03h | 3.27 | M45 | 1373rd M · 194th M45 | |
| 2009 | 14:40:12h | 3.27 | W50 | 603rd F · 62nd W50 | |
| 2010 | 14:40:25h | 3.27 | M23 | 1374th M · 372nd M23 | |
| 2011 | 14:40:54h | 3.27 | M45 | 1375th M · 195th M45 | |
| 2012 | 14:41:15h | 3.27 | M60 | 1376th M · 32nd M60 | |
| 2013 | 14:41:17h | 3.27 | M60 | 1377th M · 33rd M60 | |
| 2014 | Ricci | 14:41:19h | 3.27 | M55 | 1378th M · 80th M55 |
| 2014 | 14:41:19h | 3.27 | M60 | 1378th M · 34th M60 | |
| 2016 | 14:41:59h | 3.27 | W50 | 604th F · 63rd W50 | |
| 2017 | 14:42:32h | 3.26 | M35 | 1380th M · 277th M35 | |
| 2018 | 14:42:34h | 3.26 | M40 | 1381st M · 254th M40 | |
| 2019 | 14:42:35h | 3.26 | W50 | 605th F · 64th W50 | |
| 2019 | 14:42:35h | 3.26 | M40 | 1382nd M · 255th M40 | |
| 2019 | 14:42:35h | 3.26 | M40 | 1382nd M · 255th M40 | |
| 2022 | 14:42:50h | 3.26 | W40 | 606th F · 99th W40 | |
| 2023 | 14:42:55h | 3.26 | M23 | 1384th M · 373rd M23 | |
| 2024 | Patriot Cycling Club | 14:44:04h | 3.26 | M40 | 1385th M · 257th M40 |
| 2025 | 14:44:35h | 3.26 | W40 | 607th F · 100th W40 | |
| 2026 | WAH Biang! | 14:44:36h | 3.26 | M40 | 1386th M · 258th M40 |
| 2027 | 14:44:44h | 3.25 | M55 | 1387th M · 81st M55 | |
| 2028 | 14:44:57h | 3.25 | M23 | 1388th M · 374th M23 | |
| 2029 | 14:45:03h | 3.25 | W35 | 608th F · 112th W35 | |
| 2030 | Trekker Runner | 14:45:11h | 3.25 | M55 | 1389th M · 82nd M55 |
| 2031 | Kedodorun | 14:45:37h | 3.25 | M23 | 1390th M · 375th M23 |
| 2032 | ES 她 Run | 14:46:50h | 3.25 | M45 | 1391st M · 196th M45 |
| 2033 | 14:47:02h | 3.25 | W35 | 609th F · 113th W35 |
- 1984Tsinghua Light Team1355th M · 144th M50Time14:30:50hPace3.31Cat.M50
- 1985Team Independent1356th M · 250th M40Time14:32:37hPace3.30Cat.M40
- 19861357th M · 273rd M35Time14:32:38hPace3.30Cat.M35
- 19871358th M · 370th M23Time14:32:44hPace3.30Cat.M23
- 19881359th M · 189th M45Time14:33:28hPace3.30Cat.M45
- 19891360th M · 190th M45Time14:33:33hPace3.30Cat.M45
- 19901361st M · 251st M40Time14:33:55hPace3.30Cat.M40
- 19911362nd M · 191st M45Time14:33:59hPace3.29Cat.M45
- 1992Wrwy1363rd M · 274th M35Time14:34:18hPace3.29Cat.M35
- 19931364th M · 371st M23Time14:34:42hPace3.29Cat.M23
- 1994UTM-Leave Me-B597th F · 212th W23Time14:34:44hPace3.29Cat.W23
- 1995Stella598th F · 87th W45Time14:34:58hPace3.29Cat.W45
- 1996599th F · 97th W40Time14:35:05hPace3.29Cat.W40
- 1997Because I Said I Would1365th M · 275th M35Time14:35:56hPace3.29Cat.M35
- 1998600th F · 61st W50Time14:37:32hPace3.28Cat.W50
- 19991366th M · 145th M50Time14:37:43hPace3.28Cat.M50
- 20001367th M · 192nd M45Time14:38:23hPace3.28Cat.M45
- 2001601st F · 98th W40Time14:38:32hPace3.28Cat.W40
- 2002Monkey Crew1368th M · 79th M55Time14:39:27hPace3.27Cat.M55
- 20031369th M · 193rd M45Time14:39:28hPace3.27Cat.M45
- 2004Zk3311370th M · 276th M35Time14:39:38hPace3.27Cat.M35
- 2005Zk331602nd F · 213th W23Time14:39:39hPace3.27Cat.W23
- 2006Swrc1371st M · 252nd M40Time14:39:56hPace3.27Cat.M40
- 2007Swrc Korea1372nd M · 253rd M40Time14:39:59hPace3.27Cat.M40
- 20081373rd M · 194th M45Time14:40:03hPace3.27Cat.M45
- 2009603rd F · 62nd W50Time14:40:12hPace3.27Cat.W50
- 20101374th M · 372nd M23Time14:40:25hPace3.27Cat.M23
- 20111375th M · 195th M45Time14:40:54hPace3.27Cat.M45
- 20121376th M · 32nd M60Time14:41:15hPace3.27Cat.M60
- 20131377th M · 33rd M60Time14:41:17hPace3.27Cat.M60
- 2014Ricci1378th M · 80th M55Time14:41:19hPace3.27Cat.M55
- 20141378th M · 34th M60Time14:41:19hPace3.27Cat.M60
- 2016604th F · 63rd W50Time14:41:59hPace3.27Cat.W50
- 20171380th M · 277th M35Time14:42:32hPace3.26Cat.M35
- 20181381st M · 254th M40Time14:42:34hPace3.26Cat.M40
- 2019605th F · 64th W50Time14:42:35hPace3.26Cat.W50
- 20191382nd M · 255th M40Time14:42:35hPace3.26Cat.M40
- 20191382nd M · 255th M40Time14:42:35hPace3.26Cat.M40
- 2022606th F · 99th W40Time14:42:50hPace3.26Cat.W40
- 20231384th M · 373rd M23Time14:42:55hPace3.26Cat.M23
- 2024Patriot Cycling Club1385th M · 257th M40Time14:44:04hPace3.26Cat.M40
- 2025607th F · 100th W40Time14:44:35hPace3.26Cat.W40
- 2026WAH Biang!1386th M · 258th M40Time14:44:36hPace3.26Cat.M40
- 20271387th M · 81st M55Time14:44:44hPace3.25Cat.M55
- 20281388th M · 374th M23Time14:44:57hPace3.25Cat.M23
- 2029608th F · 112th W35Time14:45:03hPace3.25Cat.W35
- 2030Trekker Runner1389th M · 82nd M55Time14:45:11hPace3.25Cat.M55
- 2031Kedodorun1390th M · 375th M23Time14:45:37hPace3.25Cat.M23
- 2032ES 她 Run1391st M · 196th M45Time14:46:50hPace3.25Cat.M45
- 2033609th F · 113th W35Time14:47:02hPace3.25Cat.W35
Showing ranks 1,951–2,000 of 2,072